sensor_id;sensor_type;location;lat;lon;timestamp;pressure;altitude;pressure_sealevel;temperature;humidity
20424;BME280;10371;49.042;8.002;2023-04-25T00:00:12;99307.94;;;8.06;100.00
20424;BME280;10371;49.042;8.002;2023-04-25T00:01:12;99302.66;;;8.08;100.00
20424;BME280;10371;49.042;8.002;2023-04-25T00:02:14;99312.88;;;8.10;100.00
20424;BME280;10371;49.042;8.002;2023-04-25T00:03:14;99308.88;;;8.17;100.00
20424;BME280;10371;49.042;8.002;2023-04-25T00:04:14;99307.09;;;8.17;100.00
20424;BME280;10371;49.042;8.002;2023-04-25T00:05:14;99305.22;;;8.19;100.00
20424;BME280;10371;49.042;8.002;2023-04-25T00:06:16;99298.97;;;8.22;100.00
20424;BME280;10371;49.042;8.002;2023-04-25T00:07:17;99297.88;;;8.24;100.00
20424;BME280;10371;49.042;8.002;2023-04-25T00:08:18;99305.56;;;8.26;100.00
20424;BME280;10371;49.042;8.002;2023-04-25T00:09:18;99294.34;;;8.25;100.00
20424;BME280;10371;49.042;8.002;2023-04-25T00:10:19;99297.66;;;8.27;100.00
20424;BME280;10371;49.042;8.002;2023-04-25T00:11:20;99294.22;;;8.27;100.00
20424;BME280;10371;49.042;8.002;2023-04-25T00:12:20;99290.00;;;8.26;100.00
20424;BME280;10371;49.042;8.002;2023-04-25T00:13:22;99283.63;;;8.19;100.00
20424;BME280;10371;49.042;8.002;2023-04-25T00:14:23;99283.88;;;8.16;100.00
20424;BME280;10371;49.042;8.002;2023-04-25T00:15:23;99284.94;;;8.13;100.00
20424;BME280;10371;49.042;8.002;2023-04-25T00:16:24;99289.56;;;8.10;100.00
20424;BME280;10371;49.042;8.002;2023-04-25T00:17:24;99288.84;;;8.07;100.00
20424;BME280;10371;49.042;8.002;2023-04-25T00:18:25;99284.63;;;8.06;100.00
20424;BME280;10371;49.042;8.002;2023-04-25T00:19:28;99288.41;;;8.02;100.00
20424;BME280;10371;49.042;8.002;2023-04-25T00:20:29;99288.63;;;7.99;100.00
20424;BME280;10371;49.042;8.002;2023-04-25T00:21:30;99285.47;;;7.96;100.00
20424;BME280;10371;49.042;8.002;2023-04-25T00:22:32;99290.63;;;7.96;100.00
20424;BME280;10371;49.042;8.002;2023-04-25T00:23:34;99291.84;;;7.92;100.00
20424;BME280;10371;49.042;8.002;2023-04-25T00:24:36;99288.44;;;7.91;100.00
20424;BME280;10371;49.042;8.002;2023-04-25T00:25:36;99286.91;;;7.89;100.00
20424;BME280;10371;49.042;8.002;2023-04-25T00:26:36;99287.00;;;7.87;100.00
20424;BME280;10371;49.042;8.002;2023-04-25T00:27:37;99287.25;;;7.84;100.00
20424;BME280;10371;49.042;8.002;2023-04-25T00:28:39;99283.69;;;7.85;100.00
20424;BME280;10371;49.042;8.002;2023-04-25T00:29:40;99289.13;;;7.82;100.00
20424;BME280;10371;49.042;8.002;2023-04-25T00:30:43;99290.78;;;7.83;100.00
20424;BME280;10371;49.042;8.002;2023-04-25T00:31:43;99283.22;;;7.80;100.00
20424;BME280;10371;49.042;8.002;2023-04-25T00:32:43;99288.66;;;7.77;100.00
20424;BME280;10371;49.042;8.002;2023-04-25T00:33:44;99288.66;;;7.77;100.00
20424;BME280;10371;49.042;8.002;2023-04-25T00:34:44;99284.53;;;7.74;100.00
20424;BME280;10371;49.042;8.002;2023-04-25T00:35:44;99288.88;;;7.74;100.00
20424;BME280;10371;49.042;8.002;2023-04-25T00:36:45;99289.94;;;7.71;100.00
20424;BME280;10371;49.042;8.002;2023-04-25T00:37:45;99292.44;;;7.73;100.00
20424;BME280;10371;49.042;8.002;2023-04-25T00:38:45;99288.88;;;7.74;100.00
20424;BME280;10371;49.042;8.002;2023-04-25T00:39:46;99293.38;;;7.72;100.00
20424;BME280;10371;49.042;8.002;2023-04-25T00:40:46;99289.84;;;7.73;100.00
20424;BME280;10371;49.042;8.002;2023-04-25T00:41:47;99281.00;;;7.75;100.00
20424;BME280;10371;49.042;8.002;2023-04-25T00:42:49;99284.31;;;7.77;100.00
20424;BME280;10371;49.042;8.002;2023-04-25T00:43:49;99287.59;;;7.79;100.00
20424;BME280;10371;49.042;8.002;2023-04-25T00:44:52;99285.81;;;7.80;100.00
20424;BME280;10371;49.042;8.002;2023-04-25T00:45:53;99278.50;;;7.85;100.00
20424;BME280;10371;49.042;8.002;2023-04-25T00:46:54;99281.00;;;7.87;100.00
20424;BME280;10371;49.042;8.002;2023-04-25T00:47:54;99276.03;;;7.95;100.00
20424;BME280;10371;49.042;8.002;2023-04-25T00:48:55;99281.94;;;7.97;100.00
20424;BME280;10371;49.042;8.002;2023-04-25T00:49:55;99277.56;;;7.97;100.00
20424;BME280;10371;49.042;8.002;2023-04-25T00:50:58;99272.38;;;7.97;100.00
20424;BME280;10371;49.042;8.002;2023-04-25T00:51:58;99264.63;;;7.97;100.00
20424;BME280;10371;49.042;8.002;2023-04-25T00:53:00;99265.28;;;7.99;100.00
20424;BME280;10371;49.042;8.002;2023-04-25T00:54:00;99269.56;;;8.00;100.00
20424;BME280;10371;49.042;8.002;2023-04-25T00:55:01;99265.75;;;8.04;100.00
20424;BME280;10371;49.042;8.002;2023-04-25T00:56:02;99264.84;;;8.05;100.00
20424;BME280;10371;49.042;8.002;2023-04-25T00:57:02;99268.25;;;8.06;100.00
20424;BME280;10371;49.042;8.002;2023-04-25T00:58:03;99270.25;;;8.02;100.00
20424;BME280;10371;49.042;8.002;2023-04-25T00:59:03;99270.13;;;8.04;100.00
20424;BME280;10371;49.042;8.002;2023-04-25T01:00:06;99271.91;;;8.03;100.00
20424;BME280;10371;49.042;8.002;2023-04-25T01:01:06;99267.66;;;8.02;100.00
20424;BME280;10371;49.042;8.002;2023-04-25T01:02:08;99276.50;;;8.11;100.00
20424;BME280;10371;49.042;8.002;2023-04-25T01:03:09;99276.59;;;8.10;100.00
20424;BME280;10371;49.042;8.002;2023-04-25T01:04:10;99267.19;;;8.09;100.00
20424;BME280;10371;49.042;8.002;2023-04-25T01:05:11;99268.81;;;8.10;100.00
20424;BME280;10371;49.042;8.002;2023-04-25T01:06:12;99274.81;;;8.10;100.00
20424;BME280;10371;49.042;8.002;2023-04-25T01:07:12;99267.03;;;8.10;100.00
20424;BME280;10371;49.042;8.002;2023-04-25T01:08:13;99277.31;;;8.12;100.00
20424;BME280;10371;49.042;8.002;2023-04-25T01:09:14;99272.94;;;8.12;100.00
20424;BME280;10371;49.042;8.002;2023-04-25T01:10:14;99275.41;;;8.14;100.00
20424;BME280;10371;49.042;8.002;2023-04-25T01:11:15;99278.59;;;8.17;100.00
20424;BME280;10371;49.042;8.002;2023-04-25T01:12:15;99278.59;;;8.17;100.00
20424;BME280;10371;49.042;8.002;2023-04-25T01:13:16;99265.47;;;8.19;100.00
20424;BME280;10371;49.042;8.002;2023-04-25T01:14:16;99271.38;;;8.21;100.00
20424;BME280;10371;49.042;8.002;2023-04-25T01:15:17;99275.25;;;8.26;100.00
20424;BME280;10371;49.042;8.002;2023-04-25T01:16:17;99276.78;;;8.29;100.00
20424;BME280;10371;49.042;8.002;2023-04-25T01:17:19;99268.88;;;8.31;100.00
20424;BME280;10371;49.042;8.002;2023-04-25T01:18:19;99280.78;;;8.33;100.00
20424;BME280;10371;49.042;8.002;2023-04-25T01:19:20;99279.69;;;8.36;100.00
20424;BME280;10371;49.042;8.002;2023-04-25T01:20:22;99282.19;;;8.37;100.00
20424;BME280;10371;49.042;8.002;2023-04-25T01:21:23;99277.09;;;8.36;100.00
20424;BME280;10371;49.042;8.002;2023-04-25T01:22:26;99270.97;;;8.37;100.00
20424;BME280;10371;49.042;8.002;2023-04-25T01:23:26;99273.38;;;8.40;100.00
20424;BME280;10371;49.042;8.002;2023-04-25T01:24:27;99275.94;;;8.40;100.00
20424;BME280;10371;49.042;8.002;2023-04-25T01:25:27;99269.56;;;8.33;100.00
20424;BME280;10371;49.042;8.002;2023-04-25T01:26:28;99277.00;;;8.37;100.00
20424;BME280;10371;49.042;8.002;2023-04-25T01:27:29;99271.91;;;8.36;100.00
20424;BME280;10371;49.042;8.002;2023-04-25T01:28:30;99274.06;;;8.42;100.00
20424;BME280;10371;49.042;8.002;2023-04-25T01:29:31;99277.34;;;8.44;100.00
20424;BME280;10371;49.042;8.002;2023-04-25T01:30:32;99275.44;;;8.46;100.00
20424;BME280;10371;49.042;8.002;2023-04-25T01:31:33;99270.97;;;8.48;100.00
20424;BME280;10371;49.042;8.002;2023-04-25T01:32:35;99273.44;;;8.49;100.00
20424;BME280;10371;49.042;8.002;2023-04-25T01:33:38;99275.09;;;8.50;100.00
20424;BME280;10371;49.042;8.002;2023-04-25T01:34:38;99274.28;;;8.50;100.00
20424;BME280;10371;49.042;8.002;2023-04-25T01:35:39;99280.13;;;8.52;100.00
20424;BME280;10371;49.042;8.002;2023-04-25T01:36:40;99278.81;;;8.58;100.00
20424;BME280;10371;49.042;8.002;2023-04-25T01:37:42;99273.53;;;8.59;100.00
20424;BME280;10371;49.042;8.002;2023-04-25T01:38:43;99276.13;;;8.59;100.00
20424;BME280;10371;49.042;8.002;2023-04-25T01:39:44;99265.47;;;8.62;100.00
20424;BME280;10371;49.042;8.002;2023-04-25T01:40:45;99271.38;;;8.64;100.00
20424;BME280;10371;49.042;8.002;2023-04-25T01:41:47;99275.03;;;8.62;100.00
20424;BME280;10371;49.042;8.002;2023-04-25T01:42:48;99269.16;;;8.60;100.00
20424;BME280;10371;49.042;8.002;2023-04-25T01:43:48;99271.03;;;8.58;100.00
20424;BME280;10371;49.042;8.002;2023-04-25T01:44:49;99270.78;;;8.61;100.00
20424;BME280;10371;49.042;8.002;2023-04-25T01:45:49;99272.31;;;8.63;100.00
20424;BME280;10371;49.042;8.002;2023-04-25T01:46:49;99267.13;;;8.63;100.00
20424;BME280;10371;49.042;8.002;2023-04-25T01:47:50;99269.84;;;8.62;100.00
20424;BME280;10371;49.042;8.002;2023-04-25T01:48:50;99268.78;;;8.64;99.90
20424;BME280;10371;49.042;8.002;2023-04-25T01:49:50;99277.50;;;8.63;99.75
20424;BME280;10371;49.042;8.002;2023-04-25T01:50:51;99268.78;;;8.64;99.60
20424;BME280;10371;49.042;8.002;2023-04-25T01:51:51;99270.66;;;8.62;99.72
20424;BME280;10371;49.042;8.002;2023-04-25T01:52:52;99272.19;;;8.65;99.54
20424;BME280;10371;49.042;8.002;2023-04-25T01:53:53;99269.25;;;8.69;99.21
20424;BME280;10371;49.042;8.002;2023-04-25T01:54:54;99270.16;;;8.68;99.25
20424;BME280;10371;49.042;8.002;2023-04-25T01:55:55;99271.84;;;8.69;99.11
20424;BME280;10371;49.042;8.002;2023-04-25T01:56:56;99266.50;;;8.71;99.23
20424;BME280;10371;49.042;8.002;2023-04-25T01:57:57;99265.56;;;8.72;99.24
20424;BME280;10371;49.042;8.002;2023-04-25T01:58:58;99265.56;;;8.72;99.22
20424;BME280;10371;49.042;8.002;2023-04-25T02:00:02;99274.84;;;8.75;99.11
20424;BME280;10371;49.042;8.002;2023-04-25T02:01:03;99274.03;;;8.74;99.12
20424;BME280;10371;49.042;8.002;2023-04-25T02:02:03;99274.03;;;8.74;99.06
20424;BME280;10371;49.042;8.002;2023-04-25T02:03:04;99268.97;;;8.72;98.88
20424;BME280;10371;49.042;8.002;2023-04-25T02:04:05;99265.56;;;8.72;99.04
20424;BME280;10371;49.042;8.002;2023-04-25T02:05:06;99260.38;;;8.72;99.11
20424;BME280;10371;49.042;8.002;2023-04-25T02:06:06;99268.28;;;8.70;98.96
20424;BME280;10371;49.042;8.002;2023-04-25T02:07:06;99265.13;;;8.67;98.88
20424;BME280;10371;49.042;8.002;2023-04-25T02:08:08;99271.25;;;8.66;98.87
20424;BME280;10371;49.042;8.002;2023-04-25T02:09:09;99269.50;;;8.66;98.83
20424;BME280;10371;49.042;8.002;2023-04-25T02:10:09;99266.06;;;8.66;98.87
20424;BME280;10371;49.042;8.002;2023-04-25T02:11:10;99271.25;;;8.66;99.12
20424;BME280;10371;49.042;8.002;2023-04-25T02:12:10;99267.97;;;8.64;98.86
20424;BME280;10371;49.042;8.002;2023-04-25T02:13:10;99263.59;;;8.64;98.69
20424;BME280;10371;49.042;8.002;2023-04-25T02:14:11;99263.72;;;8.63;98.60
20424;BME280;10371;49.042;8.002;2023-04-25T02:15:11;99267.97;;;8.64;98.67
20424;BME280;10371;49.042;8.002;2023-04-25T02:16:11;99267.97;;;8.64;98.82
20424;BME280;10371;49.042;8.002;2023-04-25T02:17:13;99256.75;;;8.63;98.70
20424;BME280;10371;49.042;8.002;2023-04-25T02:18:13;99256.75;;;8.63;98.69
20424;BME280;10371;49.042;8.002;2023-04-25T02:19:16;99253.22;;;8.64;98.67
20424;BME280;10371;49.042;8.002;2023-04-25T02:20:16;99251.56;;;8.63;98.68
20424;BME280;10371;49.042;8.002;2023-04-25T02:21:17;99248.84;;;8.65;98.36
20424;BME280;10371;49.042;8.002;2023-04-25T02:22:17;99253.22;;;8.64;98.38
20424;BME280;10371;49.042;8.002;2023-04-25T02:23:17;99256.63;;;8.65;98.36
20424;BME280;10371;49.042;8.002;2023-04-25T02:24:19;99248.03;;;8.64;98.26
20424;BME280;10371;49.042;8.002;2023-04-25T02:25:19;99239.66;;;8.61;98.18
20424;BME280;10371;49.042;8.002;2023-04-25T02:26:20;99249.09;;;8.62;98.16
20424;BME280;10371;49.042;8.002;2023-04-25T02:27:21;99242.50;;;8.58;98.07
20424;BME280;10371;49.042;8.002;2023-04-25T02:28:21;99245.09;;;8.58;98.07
20424;BME280;10371;49.042;8.002;2023-04-25T02:29:21;99245.22;;;8.56;98.08
20424;BME280;10371;49.042;8.002;2023-04-25T02:30:22;99248.09;;;8.53;98.00
20424;BME280;10371;49.042;8.002;2023-04-25T02:31:22;99251.75;;;8.50;98.09
20424;BME280;10371;49.042;8.002;2023-04-25T02:32:22;99248.34;;;8.50;98.29
20424;BME280;10371;49.042;8.002;2023-04-25T02:33:22;99250.34;;;8.46;98.19
20424;BME280;10371;49.042;8.002;2023-04-25T02:34:23;99247.16;;;8.43;98.18
20424;BME280;10371;49.042;8.002;2023-04-25T02:35:23;99255.78;;;8.43;98.18
20424;BME280;10371;49.042;8.002;2023-04-25T02:36:23;99254.38;;;8.39;98.47
20424;BME280;10371;49.042;8.002;2023-04-25T02:37:24;99250.00;;;8.40;98.77
20424;BME280;10371;49.042;8.002;2023-04-25T02:38:24;99249.19;;;8.39;98.91
20424;BME280;10371;49.042;8.002;2023-04-25T02:39:25;99251.78;;;8.39;99.03
20424;BME280;10371;49.042;8.002;2023-04-25T02:40:27;99255.19;;;8.40;99.26
20424;BME280;10371;49.042;8.002;2023-04-25T02:41:27;99257.88;;;8.38;99.48
20424;BME280;10371;49.042;8.002;2023-04-25T02:42:27;99257.06;;;8.38;99.62
20424;BME280;10371;49.042;8.002;2023-04-25T02:43:28;99254.72;;;8.35;99.69
20424;BME280;10371;49.042;8.002;2023-04-25T02:44:28;99249.66;;;8.33;99.72
20424;BME280;10371;49.042;8.002;2023-04-25T02:45:28;99248.81;;;8.33;99.84
20424;BME280;10371;49.042;8.002;2023-04-25T02:46:28;99248.16;;;8.31;99.90
20424;BME280;10371;49.042;8.002;2023-04-25T02:47:29;99246.63;;;8.28;99.84
20424;BME280;10371;49.042;8.002;2023-04-25T02:48:29;99250.28;;;8.25;100.00
20424;BME280;10371;49.042;8.002;2023-04-25T02:49:30;99243.56;;;8.23;100.00
20424;BME280;10371;49.042;8.002;2023-04-25T02:50:30;99242.75;;;8.22;100.00
20424;BME280;10371;49.042;8.002;2023-04-25T02:51:30;99249.81;;;8.20;100.00
20424;BME280;10371;49.042;8.002;2023-04-25T02:52:31;99245.84;;;8.16;100.00
20424;BME280;10371;49.042;8.002;2023-04-25T02:53:31;99246.75;;;8.15;100.00
20424;BME280;10371;49.042;8.002;2023-04-25T02:54:31;99248.78;;;8.12;100.00
20424;BME280;10371;49.042;8.002;2023-04-25T02:55:32;99248.06;;;8.10;100.00
20424;BME280;10371;49.042;8.002;2023-04-25T02:56:32;99253.25;;;8.10;100.00
20424;BME280;10371;49.042;8.002;2023-04-25T02:57:33;99255.16;;;8.07;100.00
20424;BME280;10371;49.042;8.002;2023-04-25T02:58:33;99245.84;;;8.05;100.00
20424;BME280;10371;49.042;8.002;2023-04-25T02:59:34;99246.94;;;8.02;100.00
20424;BME280;10371;49.042;8.002;2023-04-25T03:00:34;99246.09;;;8.02;100.00
20424;BME280;10371;49.042;8.002;2023-04-25T03:01:34;99248.56;;;8.03;100.00
20424;BME280;10371;49.042;8.002;2023-04-25T03:02:35;99252.22;;;8.01;100.00
20424;BME280;10371;49.042;8.002;2023-04-25T03:03:35;99248.00;;;8.00;100.00
20424;BME280;10371;49.042;8.002;2023-04-25T03:04:35;99240.81;;;7.92;100.00
20424;BME280;10371;49.042;8.002;2023-04-25T03:05:35;99247.78;;;7.92;100.00
20424;BME280;10371;49.042;8.002;2023-04-25T03:06:36;99256.63;;;7.89;100.00
20424;BME280;10371;49.042;8.002;2023-04-25T03:07:36;99245.69;;;7.86;100.00
20424;BME280;10371;49.042;8.002;2023-04-25T03:08:36;99245.69;;;7.86;100.00
20424;BME280;10371;49.042;8.002;2023-04-25T03:09:37;99250.16;;;7.83;100.00
20424;BME280;10371;49.042;8.002;2023-04-25T03:10:38;99252.50;;;7.87;100.00
20424;BME280;10371;49.042;8.002;2023-04-25T03:11:38;99253.56;;;7.84;100.00
20424;BME280;10371;49.042;8.002;2023-04-25T03:12:39;99257.09;;;7.83;100.00
20424;BME280;10371;49.042;8.002;2023-04-25T03:13:39;99247.66;;;7.82;100.00
20424;BME280;10371;49.042;8.002;2023-04-25T03:14:39;99249.44;;;7.81;100.00
20424;BME280;10371;49.042;8.002;2023-04-25T03:15:40;99254.03;;;7.78;100.00
20424;BME280;10371;49.042;8.002;2023-04-25T03:16:40;99252.13;;;7.80;100.00
20424;BME280;10371;49.042;8.002;2023-04-25T03:17:40;99254.72;;;7.80;100.00
20424;BME280;10371;49.042;8.002;2023-04-25T03:18:40;99241.09;;;7.78;100.00
20424;BME280;10371;49.042;8.002;2023-04-25T03:19:41;99250.75;;;7.76;100.00
20424;BME280;10371;49.042;8.002;2023-04-25T03:20:41;99247.44;;;7.74;100.00
20424;BME280;10371;49.042;8.002;2023-04-25T03:21:42;99242.50;;;7.71;100.00
20424;BME280;10371;49.042;8.002;2023-04-25T03:22:43;99239.09;;;7.70;100.00
20424;BME280;10371;49.042;8.002;2023-04-25T03:23:44;99243.31;;;7.71;100.00
20424;BME280;10371;49.042;8.002;2023-04-25T03:24:45;99237.31;;;7.71;100.00
20424;BME280;10371;49.042;8.002;2023-04-25T03:25:45;99233.66;;;7.73;100.00
20424;BME280;10371;49.042;8.002;2023-04-25T03:26:45;99230.72;;;7.78;100.00
20424;BME280;10371;49.042;8.002;2023-04-25T03:27:45;99241.78;;;7.80;100.00
20424;BME280;10371;49.042;8.002;2023-04-25T03:28:46;99236.38;;;7.83;100.00
20424;BME280;10371;49.042;8.002;2023-04-25T03:29:46;99233.66;;;7.84;100.00
20424;BME280;10371;49.042;8.002;2023-04-25T03:30:46;99229.53;;;7.82;100.00
20424;BME280;10371;49.042;8.002;2023-04-25T03:31:47;99232.25;;;7.80;100.00
20424;BME280;10371;49.042;8.002;2023-04-25T03:32:47;99233.06;;;7.81;100.00
20424;BME280;10371;49.042;8.002;2023-04-25T03:33:47;99236.59;;;7.80;100.00
20424;BME280;10371;49.042;8.002;2023-04-25T03:34:48;99228.81;;;7.80;100.00
20424;BME280;10371;49.042;8.002;2023-04-25T03:35:48;99231.41;;;7.80;100.00
20424;BME280;10371;49.042;8.002;2023-04-25T03:36:49;99225.53;;;7.78;100.00
20424;BME280;10371;49.042;8.002;2023-04-25T03:37:50;99231.66;;;7.77;100.00
20424;BME280;10371;49.042;8.002;2023-04-25T03:38:50;99237.78;;;7.76;100.00
20424;BME280;10371;49.042;8.002;2023-04-25T03:39:50;99225.88;;;7.73;100.00
20424;BME280;10371;49.042;8.002;2023-04-25T03:40:51;99239.41;;;7.77;100.00
20424;BME280;10371;49.042;8.002;2023-04-25T03:41:51;99226.72;;;7.74;100.00
20424;BME280;10371;49.042;8.002;2023-04-25T03:42:52;99241.69;;;7.70;100.00
20424;BME280;10371;49.042;8.002;2023-04-25T03:43:52;99232.94;;;7.71;100.00
20424;BME280;10371;49.042;8.002;2023-04-25T03:44:52;99240.50;;;7.63;100.00
20424;BME280;10371;49.042;8.002;2023-04-25T03:45:53;99233.81;;;7.60;100.00
20424;BME280;10371;49.042;8.002;2023-04-25T03:46:53;99239.69;;;7.63;100.00
20424;BME280;10371;49.042;8.002;2023-04-25T03:47:53;99237.09;;;7.63;100.00
20424;BME280;10371;49.042;8.002;2023-04-25T03:48:54;99243.56;;;7.68;100.00
20424;BME280;10371;49.042;8.002;2023-04-25T03:49:54;99243.56;;;7.68;100.00
20424;BME280;10371;49.042;8.002;2023-04-25T03:50:54;99240.16;;;7.68;100.00
20424;BME280;10371;49.042;8.002;2023-04-25T03:51:55;99245.22;;;7.69;100.00
20424;BME280;10371;49.042;8.002;2023-04-25T03:52:55;99242.50;;;7.71;100.00
20424;BME280;10371;49.042;8.002;2023-04-25T03:53:55;99237.31;;;7.71;100.00
20424;BME280;10371;49.042;8.002;2023-04-25T03:54:56;99225.19;;;7.71;100.00
20424;BME280;10371;49.042;8.002;2023-04-25T03:55:56;99241.56;;;7.72;100.00
20424;BME280;10371;49.042;8.002;2023-04-25T03:56:56;99231.41;;;7.69;100.00
20424;BME280;10371;49.042;8.002;2023-04-25T03:57:58;99235.53;;;7.71;100.00
20424;BME280;10371;49.042;8.002;2023-04-25T03:58:58;99226.03;;;7.72;100.00
20424;BME280;10371;49.042;8.002;2023-04-25T03:59:58;99234.47;;;7.74;100.00
20424;BME280;10371;49.042;8.002;2023-04-25T04:04:17;99232.50;;;7.77;100.00
20424;BME280;10371;49.042;8.002;2023-04-25T04:05:18;99226.81;;;7.83;100.00
20424;BME280;10371;49.042;8.002;2023-04-25T04:06:18;99227.28;;;7.89;100.00
20424;BME280;10371;49.042;8.002;2023-04-25T04:07:20;99228.09;;;8.00;100.00
20424;BME280;10371;49.042;8.002;2023-04-25T04:08:20;99224.44;;;8.03;100.00
20424;BME280;10371;49.042;8.002;2023-04-25T04:09:21;99224.88;;;8.08;100.00
20424;BME280;10371;49.042;8.002;2023-04-25T04:10:21;99227.09;;;8.13;100.00
20424;BME280;10371;49.042;8.002;2023-04-25T04:11:21;99229.31;;;8.17;100.00
20424;BME280;10371;49.042;8.002;2023-04-25T04:12:22;99224.59;;;8.22;100.00
20424;BME280;10371;49.042;8.002;2023-04-25T04:13:22;99231.06;;;8.28;100.00
20424;BME280;10371;49.042;8.002;2023-04-25T04:14:22;99214.34;;;8.21;100.00
20424;BME280;10371;49.042;8.002;2023-04-25T04:15:22;99225.72;;;8.29;100.00
20424;BME280;10371;49.042;8.002;2023-04-25T04:16:23;99225.88;;;8.28;100.00
20424;BME280;10371;49.042;8.002;2023-04-25T04:17:23;99232.69;;;8.29;100.00
20424;BME280;10371;49.042;8.002;2023-04-25T04:18:23;99233.66;;;8.28;100.00
20424;BME280;10371;49.042;8.002;2023-04-25T04:19:24;99232.84;;;8.27;100.00
20424;BME280;10371;49.042;8.002;2023-04-25T04:20:24;99233.91;;;8.25;100.00
20424;BME280;10371;49.042;8.002;2023-04-25T04:21:24;99234.81;;;8.24;100.00
20424;BME280;10371;49.042;8.002;2023-04-25T04:22:24;99232.13;;;8.25;100.00
20424;BME280;10371;49.042;8.002;2023-04-25T04:23:25;99236.97;;;8.19;100.00
20424;BME280;10371;49.042;8.002;2023-04-25T04:24:27;99231.09;;;8.17;100.00
20424;BME280;10371;49.042;8.002;2023-04-25T04:25:27;99229.94;;;8.10;100.00
20424;BME280;10371;49.042;8.002;2023-04-25T04:26:28;99241.97;;;7.99;100.00
20424;BME280;10371;49.042;8.002;2023-04-25T04:27:28;99237.88;;;7.97;100.00
20424;BME280;10371;49.042;8.002;2023-04-25T04:28:29;99239.50;;;7.98;100.00
20424;BME280;10371;49.042;8.002;2023-04-25T04:29:29;99230.66;;;8.00;100.00
20424;BME280;10371;49.042;8.002;2023-04-25T04:30:30;99231.59;;;7.99;100.00
20424;BME280;10371;49.042;8.002;2023-04-25T04:31:30;99232.31;;;8.01;100.00
20424;BME280;10371;49.042;8.002;2023-04-25T04:32:32;99234.44;;;7.96;100.00
20424;BME280;10371;49.042;8.002;2023-04-25T04:33:34;99233.16;;;7.91;100.00
20424;BME280;10371;49.042;8.002;2023-04-25T04:34:35;99233.16;;;7.91;100.00
20424;BME280;10371;49.042;8.002;2023-04-25T04:35:35;99239.75;;;7.95;100.00
20424;BME280;10371;49.042;8.002;2023-04-25T04:36:35;99237.88;;;7.97;100.00
20424;BME280;10371;49.042;8.002;2023-04-25T04:37:36;99240.34;;;7.98;100.00
20424;BME280;10371;49.042;8.002;2023-04-25T04:38:36;99235.84;;;8.00;100.00
20424;BME280;10371;49.042;8.002;2023-04-25T04:39:37;99240.53;;;8.06;100.00
20424;BME280;10371;49.042;8.002;2023-04-25T04:40:37;99237.00;;;8.07;100.00
20424;BME280;10371;49.042;8.002;2023-04-25T04:41:38;99240.19;;;8.11;100.00
20424;BME280;10371;49.042;8.002;2023-04-25T04:42:38;99245.25;;;8.13;100.00
20424;BME280;10371;49.042;8.002;2023-04-25T04:43:38;99242.66;;;8.13;100.00
20424;BME280;10371;49.042;8.002;2023-04-25T04:44:39;99237.47;;;8.13;100.00
20424;BME280;10371;49.042;8.002;2023-04-25T04:45:39;99244.06;;;8.17;100.00
20424;BME280;10371;49.042;8.002;2023-04-25T04:46:40;99241.47;;;8.17;100.00
20424;BME280;10371;49.042;8.002;2023-04-25T04:47:44;99235.31;;;8.18;100.00
20424;BME280;10371;49.042;8.002;2023-04-25T04:48:45;99240.97;;;8.23;100.00
20424;BME280;10371;49.042;8.002;2023-04-25T04:49:45;99240.72;;;8.26;100.00
20424;BME280;10371;49.042;8.002;2023-04-25T04:50:46;99234.56;;;8.27;100.00
20424;BME280;10371;49.042;8.002;2023-04-25T04:51:46;99241.03;;;8.33;100.00
20424;BME280;10371;49.042;8.002;2023-04-25T04:52:47;99246.59;;;8.39;100.00
20424;BME280;10371;49.042;8.002;2023-04-25T04:53:47;99246.59;;;8.39;100.00
20424;BME280;10371;49.042;8.002;2023-04-25T04:54:47;99255.41;;;8.48;100.00
20424;BME280;10371;49.042;8.002;2023-04-25T04:55:47;99239.47;;;8.53;100.00
20424;BME280;10371;49.042;8.002;2023-04-25T04:56:48;99246.16;;;8.55;100.00
20424;BME280;10371;49.042;8.002;2023-04-25T04:57:48;99248.03;;;8.64;100.00
20424;BME280;10371;49.042;8.002;2023-04-25T04:58:48;99245.28;;;8.66;100.00
20424;BME280;10371;49.042;8.002;2023-04-25T04:59:49;99237.25;;;8.69;100.00
20424;BME280;10371;49.042;8.002;2023-04-25T05:00:50;99241.25;;;8.73;100.00
20424;BME280;10371;49.042;8.002;2023-04-25T05:01:50;99245.22;;;8.77;100.00
20424;BME280;10371;49.042;8.002;2023-04-25T05:02:50;99246.50;;;8.83;100.00
20424;BME280;10371;49.042;8.002;2023-04-25T05:03:51;99242.16;;;8.83;100.00
20424;BME280;10371;49.042;8.002;2023-04-25T05:04:52;99240.81;;;8.89;100.00
20424;BME280;10371;49.042;8.002;2023-04-25T05:05:52;99244.94;;;8.91;100.00
20424;BME280;10371;49.042;8.002;2023-04-25T05:06:52;99248.22;;;8.93;100.00
20424;BME280;10371;49.042;8.002;2023-04-25T05:07:52;99247.38;;;8.93;99.85
20424;BME280;10371;49.042;8.002;2023-04-25T05:08:53;99246.00;;;8.89;99.58
20424;BME280;10371;49.042;8.002;2023-04-25T05:09:53;99244.78;;;8.93;99.70
20424;BME280;10371;49.042;8.002;2023-04-25T05:10:53;99243.53;;;8.87;100.00
20424;BME280;10371;49.042;8.002;2023-04-25T05:11:53;99245.88;;;8.90;100.00
20424;BME280;10371;49.042;8.002;2023-04-25T05:12:54;99255.34;;;8.80;100.00
20424;BME280;10371;49.042;8.002;2023-04-25T05:13:54;99250.16;;;8.80;100.00
20424;BME280;10371;49.042;8.002;2023-04-25T05:14:54;99245.19;;;8.67;100.00
20424;BME280;10371;49.042;8.002;2023-04-25T05:15:55;99256.00;;;8.72;100.00
20424;BME280;10371;49.042;8.002;2023-04-25T05:16:55;99248.91;;;8.75;100.00
20424;BME280;10371;49.042;8.002;2023-04-25T05:17:55;99248.16;;;8.84;100.00
20424;BME280;10371;49.042;8.002;2023-04-25T05:18:55;99253.66;;;8.90;100.00
20424;BME280;10371;49.042;8.002;2023-04-25T05:19:56;99254.91;;;8.96;100.00
20424;BME280;10371;49.042;8.002;2023-04-25T05:20:56;99251.25;;;8.99;100.00
20424;BME280;10371;49.042;8.002;2023-04-25T05:21:56;99256.19;;;9.02;100.00
20424;BME280;10371;49.042;8.002;2023-04-25T05:22:56;99261.94;;;9.05;100.00
20424;BME280;10371;49.042;8.002;2023-04-25T05:23:57;99260.94;;;8.97;100.00
20424;BME280;10371;49.042;8.002;2023-04-25T05:24:57;99256.69;;;8.95;100.00